createdAt,value
2017-03-12T00:00:07.912Z,2.06
2017-03-12T00:01:07.925Z,2.12
2017-03-12T00:02:22.468Z,2.1
2017-03-12T00:03:07.962Z,2.14
2017-03-12T00:05:07.997Z,2.14
2017-03-12T00:06:08.061Z,2.1
2017-03-12T00:07:07.653Z,2.25
2017-03-12T00:08:07.664Z,2.09
2017-03-12T00:09:08.072Z,2.12
2017-03-12T00:10:08.069Z,2.07
2017-03-12T00:11:08.099Z,2.05
2017-03-12T00:13:22.653Z,2.16
2017-03-12T00:14:08.140Z,2.07
2017-03-12T00:15:08.151Z,2.12
2017-03-12T00:16:08.178Z,2.03
2017-03-12T00:17:22.706Z,2.06
2017-03-12T00:18:08.208Z,2.21
2017-03-12T00:19:08.220Z,2.16
2017-03-12T00:20:07.854Z,2.12
2017-03-12T00:21:08.256Z,2.16
2017-03-12T00:22:08.266Z,2.17
2017-03-12T00:23:08.291Z,2.03
2017-03-12T00:24:08.287Z,2.03
2017-03-12T00:26:08.330Z,1.99
2017-03-12T00:27:08.360Z,1.9
2017-03-12T00:28:22.885Z,1.91
2017-03-12T00:29:22.896Z,1.91
2017-03-12T00:30:08.406Z,1.95
2017-03-12T00:31:08.423Z,2.05
2017-03-12T00:32:08.424Z,1.86
2017-03-12T00:33:08.434Z,1.87
2017-03-12T00:34:08.454Z,1.68
2017-03-12T00:35:08.075Z,1.81
2017-03-12T00:36:08.496Z,1.86
2017-03-12T00:37:08.503Z,1.9
2017-03-12T00:38:08.513Z,1.79
2017-03-12T00:39:08.530Z,1.69
2017-03-12T00:40:08.542Z,1.73
2017-03-12T00:41:08.559Z,1.69
2017-03-12T00:42:08.577Z,1.65
2017-03-12T00:43:08.590Z,1.66
2017-03-12T00:44:23.138Z,1.69
2017-03-12T00:45:08.624Z,1.72
2017-03-12T00:46:08.637Z,1.7
2017-03-12T00:47:08.660Z,1.63
2017-03-12T00:48:23.196Z,1.63
2017-03-12T00:49:08.703Z,1.69
2017-03-12T00:50:08.328Z,1.76
2017-03-12T00:51:08.721Z,1.63
2017-03-12T00:52:08.738Z,1.72
2017-03-12T00:53:08.751Z,1.76
2017-03-12T00:54:08.769Z,1.76
2017-03-12T00:55:08.821Z,1.79
2017-03-12T00:56:08.801Z,1.86
2017-03-12T00:57:08.826Z,1.77
2017-03-12T00:58:08.849Z,1.79
2017-03-12T00:59:08.857Z,1.77
2017-03-12T01:00:08.861Z,1.83
2017-03-12T01:01:08.891Z,1.73
2017-03-12T01:02:23.418Z,1.66
2017-03-12T01:03:23.436Z,1.72
2017-03-12T01:04:08.923Z,1.8
2017-03-12T01:05:08.946Z,1.73
2017-03-12T01:06:08.953Z,1.66
2017-03-12T01:08:08.987Z,1.63
2017-03-12T01:09:09.012Z,1.65
2017-03-12T01:10:08.631Z,1.63
2017-03-12T01:11:09.051Z,1.54
2017-03-12T01:12:09.054Z,1.45
2017-03-12T01:13:09.093Z,1.45
2017-03-12T01:14:09.082Z,1.5
2017-03-12T01:15:09.093Z,1.51
2017-03-12T01:16:23.640Z,1.51
2017-03-12T01:17:09.150Z,1.37
2017-03-12T01:18:09.145Z,1.4
2017-03-12T01:19:09.186Z,1.44
2017-03-12T01:20:08.787Z,1.47
2017-03-12T01:21:09.191Z,1.37
2017-03-12T01:22:08.845Z,1.36
2017-03-12T01:23:09.216Z,1.41
2017-03-12T01:24:08.857Z,1.41
2017-03-12T01:25:09.253Z,1.33
2017-03-12T01:26:09.273Z,1.5
2017-03-12T01:27:09.279Z,1.36
2017-03-12T01:28:09.296Z,1.34
2017-03-12T01:29:09.324Z,1.45
2017-03-12T01:30:09.320Z,1.32
2017-03-12T01:31:09.340Z,1.37
2017-03-12T01:32:23.883Z,1.23
2017-03-12T01:33:09.386Z,1.34
2017-03-12T01:34:09.399Z,1.34
2017-03-12T01:35:09.399Z,1.27
2017-03-12T01:36:23.943Z,1.37
2017-03-12T01:37:09.433Z,1.4
2017-03-12T01:38:09.452Z,1.41
2017-03-12T01:39:09.482Z,1.48
2017-03-12T01:40:09.486Z,1.48
2017-03-12T01:41:09.491Z,1.4
2017-03-12T01:42:09.511Z,1.32
2017-03-12T01:43:09.537Z,1.3
2017-03-12T01:44:09.157Z,1.29
2017-03-12T01:45:09.560Z,1.33
2017-03-12T01:46:09.583Z,1.36
2017-03-12T01:47:09.225Z,1.41
2017-03-12T01:48:24.135Z,1.36
2017-03-12T01:49:09.617Z,1.41
2017-03-12T01:50:09.649Z,1.42
2017-03-12T01:51:09.648Z,1.54
2017-03-12T01:52:09.671Z,1.55
2017-03-12T01:54:09.307Z,1.42
2017-03-12T01:55:09.720Z,1.44
2017-03-12T01:56:24.263Z,1.37
2017-03-12T01:57:09.739Z,1.41
2017-03-12T01:58:09.753Z,1.44
2017-03-12T01:59:09.771Z,1.37
2017-03-12T02:00:09.792Z,1.3
2017-03-12T02:01:24.479Z,1.36
2017-03-12T02:02:09.443Z,1.34
2017-03-12T02:03:09.837Z,1.3
2017-03-12T02:04:24.379Z,1.3
2017-03-12T02:05:09.887Z,1.32
2017-03-12T02:06:09.874Z,1.26
2017-03-12T02:07:09.894Z,1.26
2017-03-12T02:08:09.542Z,1.33
2017-03-12T02:09:24.448Z,1.34
2017-03-12T02:10:24.478Z,1.42
2017-03-12T02:11:09.959Z,1.4
2017-03-12T02:12:09.970Z,1.29
2017-03-12T02:13:09.984Z,1.33
2017-03-12T02:14:10.014Z,1.26
2017-03-12T02:15:10.024Z,1.23
2017-03-12T02:16:10.052Z,1.22
2017-03-12T02:17:10.094Z,1.22
2017-03-12T02:18:10.069Z,1.24
2017-03-12T02:19:24.602Z,1.29
2017-03-12T02:20:09.712Z,1.3
2017-03-12T02:21:24.633Z,1.26
2017-03-12T02:22:10.123Z,1.33
2017-03-12T02:23:10.144Z,1.3
2017-03-12T02:24:10.151Z,1.29
2017-03-12T02:25:10.166Z,1.23
2017-03-12T02:26:09.796Z,1.22
2017-03-12T02:27:10.205Z,1.2
2017-03-12T02:28:09.841Z,1.12
2017-03-12T02:29:10.229Z,1.3
2017-03-12T02:30:10.252Z,1.29
2017-03-12T02:31:10.282Z,1.29
2017-03-12T02:32:10.279Z,1.15
2017-03-12T02:33:09.905Z,1.18
2017-03-12T02:34:09.916Z,1.16
2017-03-12T02:35:09.939Z,1.14
2017-03-12T02:36:09.947Z,1.23
2017-03-12T02:37:09.959Z,1.16
2017-03-12T02:38:09.992Z,1.12
2017-03-12T02:39:09.999Z,1.08
2017-03-12T02:40:10.013Z,1.18
2017-03-12T02:41:10.036Z,1.14
2017-03-12T02:42:24.561Z,1.09
2017-03-12T02:43:10.444Z,1.24
2017-03-12T02:44:10.076Z,1
2017-03-12T02:45:10.486Z,1.24
2017-03-12T02:46:10.104Z,1.14
2017-03-12T02:47:10.495Z,1.12
2017-03-12T02:48:10.145Z,1.15
2017-03-12T02:49:10.528Z,1.14
2017-03-12T02:50:10.585Z,1.08
2017-03-12T02:51:25.114Z,1.04
2017-03-12T02:52:10.574Z,1.12
2017-03-12T02:53:10.200Z,1.14
2017-03-12T02:54:10.600Z,1.11
2017-03-12T02:55:25.143Z,1.11
2017-03-12T02:56:10.632Z,1.11
2017-03-12T02:57:10.647Z,1.05
2017-03-12T02:58:10.289Z,1.11
2017-03-12T02:59:10.674Z,1.11
2017-03-12T03:00:10.693Z,1.11
2017-03-12T03:01:10.710Z,1.11
2017-03-12T03:02:09.947Z,1.2
2017-03-12T03:03:10.750Z,1.02
2017-03-12T03:04:10.757Z,1.14
2017-03-12T03:05:10.770Z,1.11
2017-03-12T03:06:10.781Z,1.05
2017-03-12T03:07:25.329Z,1.12
2017-03-12T03:08:10.426Z,1.11
2017-03-12T03:09:25.354Z,1.12
2017-03-12T03:10:10.468Z,1.12
2017-03-12T03:11:25.382Z,1
2017-03-12T03:12:10.890Z,0.98
2017-03-12T03:13:10.898Z,1.05
2017-03-12T03:14:10.905Z,0.84
2017-03-12T03:16:10.932Z,0.87
2017-03-12T03:17:10.962Z,0.98
2017-03-12T03:18:10.576Z,1.04
2017-03-12T03:19:11.226Z,1.04
2017-03-12T03:20:10.997Z,0.96
2017-03-12T03:22:10.653Z,0.93
2017-03-12T03:23:25.566Z,0.86
2017-03-12T03:24:25.579Z,0.83
2017-03-12T03:25:11.071Z,0.98
2017-03-12T03:26:25.607Z,0.84
2017-03-12T03:28:10.736Z,0.91
2017-03-12T03:29:10.738Z,0.93
2017-03-12T03:30:11.150Z,0.86
2017-03-12T03:31:11.158Z,0.87
2017-03-12T03:32:11.180Z,0.84
2017-03-12T03:33:11.192Z,0.84
2017-03-12T03:36:11.240Z,0.73
2017-03-12T03:37:11.245Z,0.79
2017-03-12T03:38:11.269Z,0.78
2017-03-12T03:40:11.289Z,0.9
2017-03-12T03:41:11.305Z,0.84
2017-03-12T03:42:11.314Z,0.83
2017-03-12T03:43:11.332Z,0.87
2017-03-12T03:44:11.347Z,0.91
2017-03-12T03:45:11.357Z,0.87
2017-03-12T03:46:11.400Z,0.87
2017-03-12T03:47:11.391Z,0.8
2017-03-12T03:48:11.413Z,0.72
2017-03-12T03:49:11.428Z,0.65
2017-03-12T03:50:11.052Z,0.65
2017-03-12T03:51:11.456Z,0.72
2017-03-12T03:52:11.472Z,0.7
2017-03-12T03:53:11.488Z,0.7
2017-03-12T03:54:26.030Z,0.72
2017-03-12T03:55:11.517Z,0.7
2017-03-12T03:56:11.140Z,0.72
2017-03-12T03:57:11.543Z,0.58
2017-03-12T03:58:11.559Z,0.51
2017-03-12T03:59:26.094Z,0.53
2017-03-12T04:02:26.151Z,0.53
2017-03-12T04:03:11.631Z,0.57
2017-03-12T04:04:11.642Z,0.42
2017-03-12T04:05:11.667Z,0.42
2017-03-12T04:06:11.671Z,0.44
2017-03-12T04:07:11.683Z,0.33
2017-03-12T04:08:11.703Z,0.39
2017-03-12T04:10:11.735Z,0.39
2017-03-12T04:11:11.744Z,0.41
2017-03-12T04:12:11.768Z,0.5
2017-03-12T04:13:11.775Z,0.46
2017-03-12T04:14:11.807Z,0.49
2017-03-12T04:16:11.820Z,0.44
2017-03-12T04:17:11.831Z,0.53
2017-03-12T04:18:11.849Z,0.47
2017-03-12T04:19:11.873Z,0.49
2017-03-12T04:20:11.899Z,0.38
2017-03-12T04:21:11.892Z,0.38
2017-03-12T04:22:11.910Z,0.41
2017-03-12T04:23:11.952Z,0.32
2017-03-12T04:24:11.951Z,0.38
2017-03-12T04:25:11.951Z,0.38
2017-03-12T04:26:26.492Z,0.31
2017-03-12T04:27:11.983Z,0.32
2017-03-12T04:28:12.002Z,0.31
2017-03-12T04:29:12.008Z,0.32
2017-03-12T04:30:12.029Z,0.29
2017-03-12T04:33:12.066Z,0.33
2017-03-12T04:34:11.956Z,0.35
2017-03-12T04:35:12.098Z,0.24
2017-03-12T04:36:12.115Z,0.23
2017-03-12T04:37:12.159Z,0.29
2017-03-12T04:38:12.151Z,0.26
2017-03-12T04:39:12.159Z,0.35
2017-03-12T04:40:12.166Z,0.31
2017-03-12T04:41:11.793Z,0.26
2017-03-12T04:42:26.723Z,0.31
2017-03-12T04:43:12.237Z,0.31
2017-03-12T04:44:11.845Z,0.42
2017-03-12T04:45:26.767Z,0.35
2017-03-12T04:46:12.254Z,0.38
2017-03-12T04:47:11.891Z,0.38
2017-03-12T04:48:26.808Z,0.35
2017-03-12T04:49:11.933Z,0.38
2017-03-12T04:50:11.931Z,0.35
2017-03-12T04:51:11.953Z,0.32
2017-03-12T04:52:11.964Z,0.33
2017-03-12T04:53:11.979Z,0.32
2017-03-12T04:54:11.996Z,0.32
2017-03-12T04:55:12.385Z,0.32
2017-03-12T04:56:12.414Z,0.33
2017-03-12T04:57:26.946Z,0.2
2017-03-12T04:58:26.963Z,0.28
2017-03-12T04:59:12.446Z,0.24
2017-03-12T05:00:12.468Z,0.28
2017-03-12T05:01:12.477Z,0.18
2017-03-12T05:02:27.012Z,0.07
2017-03-12T05:03:12.518Z,0.18
2017-03-12T05:04:27.040Z,0.2
2017-03-12T05:05:12.533Z,0.28
2017-03-12T05:06:12.546Z,0.21
2017-03-12T05:07:12.560Z,0.26
2017-03-12T05:08:12.586Z,0.23
2017-03-12T05:09:12.604Z,0.18
2017-03-12T05:10:12.602Z,0.13
2017-03-12T05:11:12.621Z,0.28
2017-03-12T05:12:12.640Z,0.23
2017-03-12T05:13:12.649Z,0.21
2017-03-12T05:14:27.205Z,0.32
2017-03-12T05:15:12.675Z,0.31
2017-03-12T05:17:12.699Z,0.26
2017-03-12T05:18:12.331Z,0.26
2017-03-12T05:19:12.362Z,0.21
2017-03-12T05:20:12.745Z,0.2
2017-03-12T05:21:12.376Z,0.32
2017-03-12T05:22:12.389Z,0.33
2017-03-12T05:23:12.807Z,0.24
2017-03-12T05:24:12.801Z,0.29
2017-03-12T05:25:12.834Z,0.31
2017-03-12T05:26:12.459Z,0.2
2017-03-12T05:27:12.855Z,0.21
2017-03-12T05:28:12.876Z,0.2
2017-03-12T05:29:27.403Z,0.2
2017-03-12T05:30:12.890Z,0.33
2017-03-12T05:31:12.921Z,0.28
2017-03-12T05:32:12.555Z,0.29
2017-03-12T05:33:12.945Z,0.29
2017-03-12T05:34:27.474Z,0.26
2017-03-12T05:35:12.966Z,0.28
2017-03-12T05:36:12.609Z,0.32
2017-03-12T05:37:12.618Z,0.17
2017-03-12T05:38:12.623Z,0.28
2017-03-12T05:39:12.636Z,0.28
2017-03-12T05:40:13.040Z,0.32
2017-03-12T05:41:13.050Z,0.35
2017-03-12T05:42:13.079Z,0.35
2017-03-12T05:43:13.076Z,0.33
2017-03-12T05:44:13.162Z,0.38
2017-03-12T05:45:13.128Z,0.39
2017-03-12T05:46:12.740Z,0.39
2017-03-12T05:47:13.163Z,0.33
2017-03-12T05:48:13.149Z,0.39
2017-03-12T05:49:27.690Z,0.35
2017-03-12T05:50:13.180Z,0.33
2017-03-12T05:51:13.201Z,0.44
2017-03-12T05:52:13.213Z,0.51
2017-03-12T05:53:12.843Z,0.47
2017-03-12T05:54:13.235Z,0.38
2017-03-12T05:55:13.263Z,0.44
2017-03-12T05:56:12.891Z,0.39
2017-03-12T05:57:13.280Z,0.39
2017-03-12T05:58:13.609Z,0.47
2017-03-12T05:59:13.310Z,0.55
2017-03-12T06:00:13.622Z,0.7
2017-03-12T06:01:27.484Z,0.58
2017-03-12T06:02:12.968Z,0.58
2017-03-12T06:03:13.371Z,0.6
2017-03-12T06:04:13.015Z,0.72
2017-03-12T06:05:13.410Z,0.75
2017-03-12T06:06:13.418Z,0.7
2017-03-12T06:07:13.042Z,0.84
2017-03-12T06:08:13.057Z,0.8
2017-03-12T06:09:13.471Z,0.9
2017-03-12T06:10:13.472Z,0.98
2017-03-12T06:11:13.491Z,1.06
2017-03-12T06:12:13.513Z,1.02
2017-03-12T06:13:13.539Z,1.33
2017-03-12T06:14:13.538Z,1.34
2017-03-12T06:15:13.555Z,1.45
2017-03-12T06:16:13.570Z,1.54
2017-03-12T06:17:28.115Z,1.66
2017-03-12T06:18:13.225Z,1.73
2017-03-12T06:19:13.630Z,1.86
2017-03-12T06:20:28.169Z,2.02
2017-03-12T06:21:28.188Z,2.07
2017-03-12T06:22:13.693Z,2.03
2017-03-12T06:23:13.718Z,2.16
2017-03-12T06:24:13.745Z,2.17
2017-03-12T06:25:13.748Z,2.3
2017-03-12T06:26:13.759Z,2.35
2017-03-12T06:27:13.792Z,2.36
2017-03-12T06:28:13.803Z,2.48
2017-03-12T06:30:13.843Z,2.48
2017-03-12T06:31:13.861Z,2.6
2017-03-12T06:32:13.503Z,2.59
2017-03-12T06:33:28.437Z,2.69
2017-03-12T06:34:13.930Z,2.72
2017-03-12T06:35:13.953Z,2.77
2017-03-12T06:36:13.983Z,2.77
2017-03-12T06:37:28.525Z,3
2017-03-12T06:38:13.646Z,3.03
2017-03-12T06:39:14.051Z,3.14
2017-03-12T06:40:14.070Z,3.23
2017-03-12T06:41:14.096Z,3.35
2017-03-12T06:42:14.123Z,3.5
2017-03-12T06:43:14.148Z,3.42
2017-03-12T06:44:14.177Z,3.52
2017-03-12T06:45:14.188Z,3.52
2017-03-12T06:46:14.210Z,3.54
2017-03-12T06:47:14.238Z,3.6
2017-03-12T06:48:14.264Z,3.68
2017-03-12T06:49:28.813Z,3.87
2017-03-12T06:52:14.373Z,3.98
2017-03-12T06:53:14.377Z,3.97
2017-03-12T06:54:14.414Z,4.02
2017-03-12T06:55:28.971Z,4.15
2017-03-12T06:56:14.452Z,4.15
2017-03-12T06:57:14.479Z,4
2017-03-12T06:58:14.520Z,3.93
2017-03-12T06:59:14.143Z,3.91
2017-03-12T07:00:14.577Z,3.83
2017-03-12T07:01:14.578Z,3.86
2017-03-12T07:02:14.231Z,3.91
2017-03-12T07:03:14.639Z,3.93
2017-03-12T07:04:29.186Z,3.79
2017-03-12T07:05:14.679Z,3.61
2017-03-12T07:06:14.330Z,3.43
2017-03-12T07:07:14.739Z,3.39
2017-03-12T07:09:14.812Z,3.17
2017-03-12T07:10:14.804Z,3.24
2017-03-12T07:12:14.859Z,3.35
2017-03-12T07:13:14.862Z,3.4
2017-03-12T07:14:14.887Z,3.31
2017-03-12T07:15:14.915Z,3.2
2017-03-12T07:16:14.929Z,3.26
2017-03-12T07:17:14.953Z,3.39
2017-03-12T07:18:14.973Z,3.43
2017-03-12T07:19:14.992Z,3.42
2017-03-12T07:21:14.655Z,3.24
2017-03-12T07:22:14.684Z,3.28
2017-03-12T07:23:14.689Z,3.39
2017-03-12T07:24:14.708Z,3.45
2017-03-12T07:25:15.114Z,3.55
2017-03-12T07:26:15.138Z,3.52
2017-03-12T07:27:15.163Z,3.47
2017-03-12T07:28:15.172Z,3.39
2017-03-12T07:29:15.192Z,3.35
2017-03-12T07:30:15.218Z,3.26
2017-03-12T07:31:15.231Z,3.15
2017-03-12T07:32:15.250Z,3.14
2017-03-12T07:33:14.891Z,3.13
2017-03-12T07:34:14.903Z,3.17
2017-03-12T07:35:14.919Z,3.15
2017-03-12T07:36:29.472Z,3.2
2017-03-12T07:37:15.356Z,3.35
2017-03-12T07:38:29.892Z,3.32
2017-03-12T07:39:15.008Z,3.36
2017-03-12T07:40:29.929Z,3.32
2017-03-12T07:41:15.427Z,3.33
2017-03-12T07:42:15.465Z,3.42
2017-03-12T07:43:29.996Z,3.39
2017-03-12T07:44:15.485Z,3.43
2017-03-12T07:47:15.531Z,3.42
2017-03-12T07:48:15.558Z,3.45
2017-03-12T07:49:15.569Z,3.35
2017-03-12T07:51:15.616Z,3.33
2017-03-12T07:52:30.158Z,3.36
2017-03-12T07:53:30.169Z,3.5
2017-03-12T07:54:15.668Z,3.61
2017-03-12T07:55:15.674Z,3.57
2017-03-12T07:56:30.220Z,3.52
2017-03-12T07:57:15.717Z,3.54
2017-03-12T07:58:15.727Z,3.43
2017-03-12T07:59:15.752Z,3.52
2017-03-12T08:00:30.302Z,3.57
2017-03-12T08:01:15.783Z,3.72
2017-03-12T08:02:15.804Z,3.76
2017-03-12T08:03:15.815Z,3.73
2017-03-12T08:04:15.837Z,3.69
2017-03-12T08:05:15.852Z,3.57
2017-03-12T08:06:15.878Z,3.5
2017-03-12T08:07:15.894Z,3.52
2017-03-12T08:08:30.435Z,3.62
2017-03-12T08:09:15.924Z,3.6
2017-03-12T08:10:30.472Z,3.6
2017-03-12T08:11:15.961Z,3.68
2017-03-12T08:12:15.974Z,3.65
2017-03-12T08:13:15.999Z,3.6
2017-03-12T08:14:16.012Z,3.6
2017-03-12T08:15:16.029Z,3.62
2017-03-12T08:16:16.055Z,3.69
2017-03-12T08:17:16.068Z,3.84
2017-03-12T08:18:16.090Z,3.9
2017-03-12T08:19:16.111Z,3.96
2017-03-12T08:20:30.654Z,4.12
2017-03-12T08:21:16.139Z,4.26
2017-03-12T08:22:16.161Z,4.3
2017-03-12T08:23:16.173Z,4.34
2017-03-12T08:24:30.721Z,4.3
2017-03-12T08:25:16.233Z,4.3
2017-03-12T08:26:16.248Z,4.32
2017-03-12T08:27:30.771Z,4.4
2017-03-12T08:28:16.278Z,4.36
2017-03-12T08:29:15.896Z,4.37
2017-03-12T08:30:16.308Z,4.47
2017-03-12T08:31:16.322Z,4.51
2017-03-12T08:32:16.333Z,4.51
2017-03-12T08:33:16.351Z,4.66
2017-03-12T08:34:16.028Z,4.66
2017-03-12T08:35:16.388Z,4.7
2017-03-12T08:36:16.404Z,4.89
2017-03-12T08:37:16.037Z,4.77
2017-03-12T08:38:16.441Z,4.84
2017-03-12T08:39:30.987Z,4.8
2017-03-12T08:40:16.485Z,4.75
2017-03-12T08:41:16.492Z,4.77
2017-03-12T08:42:16.513Z,4.75
2017-03-12T08:43:16.539Z,4.89
2017-03-12T08:44:16.554Z,4.92
2017-03-12T08:45:16.566Z,4.85
2017-03-12T08:46:16.592Z,4.73
2017-03-12T08:47:16.604Z,4.92
2017-03-12T08:48:16.623Z,5.02
2017-03-12T08:49:16.637Z,5.24
2017-03-12T08:50:31.193Z,5.31
2017-03-12T08:51:16.689Z,5.3
2017-03-12T08:52:16.697Z,5.22
2017-03-12T08:53:16.325Z,5.18
2017-03-12T08:54:16.731Z,5.24
2017-03-12T08:55:16.750Z,5.25
2017-03-12T08:56:17.114Z,5.18
2017-03-12T08:57:16.784Z,5.3
2017-03-12T08:58:16.810Z,5.36
2017-03-12T08:59:16.817Z,5.31
2017-03-12T09:00:16.840Z,5.35
2017-03-12T09:01:16.889Z,5.4
2017-03-12T09:02:16.908Z,5.24
2017-03-12T09:03:16.923Z,5.25
2017-03-12T09:04:16.938Z,5.38
2017-03-12T09:05:16.962Z,5.2
2017-03-12T09:06:16.947Z,5.13
2017-03-12T09:07:16.966Z,5.12
2017-03-12T09:08:17.006Z,5.02
2017-03-12T09:09:17.005Z,5.21
2017-03-12T09:10:17.027Z,5.21
2017-03-12T09:11:31.576Z,5.31
2017-03-12T09:12:17.069Z,5.45
2017-03-12T09:13:17.083Z,5.39
2017-03-12T09:15:17.108Z,5.28
2017-03-12T09:16:17.146Z,5.33
2017-03-12T09:17:17.151Z,5.36
2017-03-12T09:18:17.177Z,5.42
2017-03-12T09:19:17.191Z,5.51
2017-03-12T09:20:17.221Z,5.65
2017-03-12T09:21:17.225Z,5.67
2017-03-12T09:22:17.249Z,5.81
2017-03-12T09:23:17.266Z,5.81
2017-03-12T09:24:17.277Z,5.99
2017-03-12T09:25:17.304Z,5.97
2017-03-12T09:26:17.327Z,6.08
2017-03-12T09:27:31.872Z,5.86
2017-03-12T09:28:17.360Z,5.82
2017-03-12T09:29:17.378Z,5.74
2017-03-12T09:30:17.408Z,5.64
2017-03-12T09:31:17.422Z,5.63
2017-03-12T09:32:31.952Z,5.51
2017-03-12T09:33:17.449Z,5.49
2017-03-12T09:34:17.465Z,5.51
2017-03-12T09:35:17.483Z,5.48
2017-03-12T09:36:17.500Z,5.49
2017-03-12T09:37:17.520Z,5.46
2017-03-12T09:38:17.539Z,5.6
2017-03-12T09:39:17.854Z,5.53
2017-03-12T09:41:17.601Z,5.83
2017-03-12T09:42:17.614Z,5.83
2017-03-12T09:43:32.161Z,5.82
2017-03-12T09:44:17.654Z,5.78
2017-03-12T09:45:17.667Z,5.89
2017-03-12T09:46:17.696Z,5.94
2017-03-12T09:47:17.704Z,5.94
2017-03-12T09:48:17.728Z,6.01
2017-03-12T09:49:17.356Z,5.97
2017-03-12T09:50:17.763Z,6.09
2017-03-12T09:51:17.793Z,6.38
2017-03-12T09:52:17.798Z,6.58
2017-03-12T09:53:17.825Z,6.7
2017-03-12T09:54:17.852Z,6.81
2017-03-12T09:55:17.858Z,6.74
2017-03-12T09:56:17.882Z,6.77
2017-03-12T09:57:17.917Z,6.37
2017-03-12T09:58:17.919Z,6.19
2017-03-12T09:59:32.467Z,6.4
2017-03-12T10:00:17.997Z,6.55
2017-03-12T10:01:17.974Z,6.28
2017-03-12T10:02:17.988Z,6.3
2017-03-12T10:03:18.010Z,6.41
2017-03-12T10:04:18.031Z,6.52
2017-03-12T10:05:18.060Z,6.43
2017-03-12T10:06:18.078Z,6.36
2017-03-12T10:08:18.119Z,6.08
2017-03-12T10:09:18.124Z,6.19
2017-03-12T10:10:18.147Z,6.12
2017-03-12T10:11:18.194Z,6.3
2017-03-12T10:12:18.188Z,6.34
2017-03-12T10:13:18.202Z,6.28
2017-03-12T10:14:32.750Z,6.38
2017-03-12T10:15:18.251Z,6.49
2017-03-12T10:16:17.872Z,6.56
2017-03-12T10:17:18.299Z,6.64
2017-03-12T10:18:32.825Z,6.88
2017-03-12T10:19:18.364Z,6.92
2017-03-12T10:20:18.337Z,7.02
2017-03-12T10:21:18.355Z,7.12
2017-03-12T10:22:18.401Z,7.27
2017-03-12T10:24:18.416Z,7.21
2017-03-12T10:25:18.448Z,6.95
2017-03-12T10:26:18.456Z,6.76
2017-03-12T10:27:18.477Z,6.76
2017-03-12T10:29:18.530Z,6.7
2017-03-12T10:30:18.539Z,6.94
2017-03-12T10:31:33.077Z,6.95
2017-03-12T10:32:18.604Z,6.94
2017-03-12T10:33:18.593Z,7.07
2017-03-12T10:34:33.134Z,6.94
2017-03-12T10:35:18.631Z,6.94
2017-03-12T10:37:18.682Z,6.85
2017-03-12T10:38:18.688Z,6.73
2017-03-12T10:39:18.701Z,6.7
2017-03-12T10:40:18.338Z,6.85
2017-03-12T10:41:18.741Z,6.95
2017-03-12T10:42:18.760Z,7.27
2017-03-12T10:43:18.779Z,7.27
2017-03-12T10:44:18.800Z,7.25
2017-03-12T10:45:18.817Z,6.99
2017-03-12T10:46:33.363Z,6.97
2017-03-12T10:47:18.858Z,6.92
2017-03-12T10:48:18.890Z,6.73
2017-03-12T10:49:18.912Z,6.71
2017-03-12T10:50:18.961Z,6.88
2017-03-12T10:51:18.552Z,6.88
2017-03-12T10:53:18.969Z,6.97
2017-03-12T10:54:18.994Z,7.13
2017-03-12T10:55:19.018Z,7.16
2017-03-12T10:57:19.051Z,7.13
2017-03-12T10:58:19.067Z,7.25
2017-03-12T10:59:19.399Z,7.13
2017-03-12T11:00:19.109Z,7.13
2017-03-12T11:01:19.127Z,7.03
2017-03-12T11:02:33.675Z,6.91
2017-03-12T11:03:19.170Z,6.97
2017-03-12T11:04:19.183Z,7.07
2017-03-12T11:05:33.737Z,7.27
2017-03-12T11:06:33.751Z,7.24
2017-03-12T11:07:19.245Z,7.25
2017-03-12T11:08:33.789Z,7.24
2017-03-12T11:09:19.309Z,7.32
2017-03-12T11:10:19.303Z,7.43
2017-03-12T11:11:19.326Z,7.1
2017-03-12T11:12:19.359Z,6.85
2017-03-12T11:13:19.363Z,6.73
2017-03-12T11:14:19.394Z,6.74
2017-03-12T11:15:19.415Z,6.89
2017-03-12T11:16:19.419Z,6.98
2017-03-12T11:17:19.061Z,7.12
2017-03-12T11:18:33.987Z,6.97
2017-03-12T11:19:34.008Z,7.21
2017-03-12T11:20:34.027Z,7.15
2017-03-12T11:21:19.560Z,7.25
2017-03-12T11:22:19.537Z,7.27
2017-03-12T11:23:19.562Z,7.35
2017-03-12T11:24:33.716Z,7.39
2017-03-12T11:25:33.736Z,7.35
2017-03-12T11:26:19.617Z,7.34
2017-03-12T11:27:19.639Z,7.25
2017-03-12T11:28:19.269Z,7.16
2017-03-12T11:29:19.707Z,7.28
2017-03-12T11:30:19.318Z,7.27
2017-03-12T11:31:19.714Z,7.35
2017-03-12T11:32:19.760Z,7.28
2017-03-12T11:33:19.772Z,7.1
2017-03-12T11:34:34.298Z,7.1
2017-03-12T11:35:19.800Z,7.24
2017-03-12T11:36:19.819Z,7.27
2017-03-12T11:37:19.828Z,7.16
2017-03-12T11:38:19.856Z,6.99
2017-03-12T11:40:19.905Z,6.73
2017-03-12T11:41:19.908Z,6.7
2017-03-12T11:42:19.947Z,6.8
2017-03-12T11:43:19.967Z,6.95
2017-03-12T11:44:19.980Z,6.98
2017-03-12T11:45:19.618Z,6.91
2017-03-12T11:46:20.009Z,6.92
2017-03-12T11:47:20.041Z,6.94
2017-03-12T11:48:20.059Z,6.92
2017-03-12T11:49:34.595Z,7.09
2017-03-12T11:50:20.086Z,7.1
2017-03-12T11:51:20.117Z,6.98
2017-03-12T11:52:20.139Z,6.98
2017-03-12T11:53:20.181Z,6.81
2017-03-12T11:54:20.167Z,6.55
2017-03-12T11:55:20.190Z,6.4
2017-03-12T11:57:20.274Z,6.21
2017-03-12T11:58:19.861Z,6.19
2017-03-12T11:59:20.262Z,6.17
2017-03-12T12:00:20.307Z,6.41
2017-03-12T12:01:20.306Z,6.54
2017-03-12T12:02:20.336Z,6.56
2017-03-12T12:03:20.364Z,6.54
2017-03-12T12:04:34.892Z,6.52
2017-03-12T12:05:20.394Z,6.59
2017-03-12T12:06:20.011Z,6.55
2017-03-12T12:07:20.418Z,6.55
2017-03-12T12:08:20.063Z,6.51
2017-03-12T12:09:20.465Z,6.61
2017-03-12T12:10:20.484Z,6.49
2017-03-12T12:11:20.505Z,6.54
2017-03-12T12:13:20.538Z,6.73
2017-03-12T12:14:20.555Z,6.64
2017-03-12T12:15:20.572Z,6.8
2017-03-12T12:16:20.593Z,6.99
2017-03-12T12:17:20.611Z,7.12
2017-03-12T12:18:20.629Z,7.28
2017-03-12T12:19:20.650Z,7.46
2017-03-12T12:20:20.283Z,7.49
2017-03-12T12:21:35.217Z,7.45
2017-03-12T12:22:20.707Z,7.42
2017-03-12T12:23:20.346Z,7.52
2017-03-12T12:24:20.746Z,7.5
2017-03-12T12:25:35.291Z,7.49
2017-03-12T12:26:20.784Z,7.5
2017-03-12T12:27:20.814Z,7.67
2017-03-12T12:28:20.826Z,7.63
2017-03-12T12:29:20.846Z,7.67
2017-03-12T12:30:20.876Z,7.63
2017-03-12T12:31:20.896Z,7.58
2017-03-12T12:32:20.921Z,7.45
2017-03-12T12:33:20.922Z,7.5
2017-03-12T12:34:20.942Z,7.46
2017-03-12T12:35:20.957Z,7.49
2017-03-12T12:36:20.987Z,7.32
2017-03-12T12:37:35.540Z,7.28
2017-03-12T12:38:21.018Z,7.39
2017-03-12T12:39:21.036Z,7.43
2017-03-12T12:40:35.583Z,7.45
2017-03-12T12:41:21.077Z,7.37
2017-03-12T12:42:21.109Z,7.25
2017-03-12T12:43:21.116Z,7.12
2017-03-12T12:44:21.133Z,6.97
2017-03-12T12:45:21.160Z,6.85
2017-03-12T12:46:20.782Z,6.76
2017-03-12T12:47:20.807Z,6.77
2017-03-12T12:48:21.216Z,6.85
2017-03-12T12:49:21.231Z,6.81
2017-03-12T12:50:21.255Z,6.8
2017-03-12T12:51:35.801Z,6.76
2017-03-12T12:52:21.291Z,6.85
2017-03-12T12:53:35.832Z,6.73
2017-03-12T12:54:21.343Z,6.73
2017-03-12T12:55:21.356Z,6.79
2017-03-12T12:56:21.368Z,6.88
2017-03-12T12:57:21.385Z,7.03
2017-03-12T12:58:21.404Z,6.91
2017-03-12T12:59:21.430Z,7.1
2017-03-12T13:00:21.454Z,7.24
2017-03-12T13:02:21.481Z,7.25
2017-03-12T13:03:21.501Z,7.23
2017-03-12T13:04:21.516Z,7.25
2017-03-12T13:05:21.152Z,7.2
2017-03-12T13:06:21.574Z,7.05
2017-03-12T13:07:21.576Z,7.09
2017-03-12T13:08:21.605Z,7.28
2017-03-12T13:09:36.144Z,7.27
2017-03-12T13:10:21.644Z,7.49
2017-03-12T13:11:36.183Z,7.42
2017-03-12T13:12:21.291Z,7.5
2017-03-12T13:13:21.693Z,7.63
2017-03-12T13:14:21.338Z,7.57
2017-03-12T13:15:21.738Z,7.6
2017-03-12T13:16:21.749Z,7.61
2017-03-12T13:17:21.770Z,7.48
2017-03-12T13:18:21.413Z,7.35
2017-03-12T13:19:21.813Z,7.48
2017-03-12T13:20:21.449Z,7.63
2017-03-12T13:21:21.465Z,7.74
2017-03-12T13:22:21.901Z,7.64
2017-03-12T13:23:21.504Z,7.58
2017-03-12T13:25:21.926Z,7.43
2017-03-12T13:26:21.955Z,7.5
2017-03-12T13:27:21.970Z,7.4
2017-03-12T13:28:22.009Z,7.37
2017-03-12T13:29:36.528Z,7.32
2017-03-12T13:30:22.034Z,7.39
2017-03-12T13:32:22.056Z,7.37
2017-03-12T13:33:22.080Z,7.32
2017-03-12T13:34:22.101Z,7.42
2017-03-12T13:35:22.124Z,7.4
2017-03-12T13:36:36.673Z,7.45
2017-03-12T13:37:22.158Z,7.58
2017-03-12T13:38:22.189Z,7.63
2017-03-12T13:39:22.199Z,7.53
2017-03-12T13:40:22.225Z,7.61
2017-03-12T13:41:22.234Z,7.63
2017-03-12T13:42:22.255Z,7.61
2017-03-12T13:43:22.330Z,7.63
2017-03-12T13:44:36.820Z,7.5
2017-03-12T13:45:22.312Z,7.45
2017-03-12T13:46:22.359Z,7.34
2017-03-12T13:47:36.890Z,7.45
2017-03-12T13:48:22.379Z,7.24
2017-03-12T13:49:22.014Z,7.25
2017-03-12T13:51:22.432Z,7.45
2017-03-12T13:52:22.445Z,7.34
2017-03-12T13:53:22.466Z,7.32
2017-03-12T13:54:22.514Z,7.46
2017-03-12T13:55:22.533Z,7.48
2017-03-12T13:56:37.056Z,7.64
2017-03-12T13:57:22.543Z,7.58
2017-03-12T13:58:22.571Z,7.67
2017-03-12T13:59:22.590Z,7.77
2017-03-12T14:00:37.132Z,7.64
2017-03-12T14:01:22.829Z,7.61
2017-03-12T14:02:22.646Z,7.6
2017-03-12T14:03:22.681Z,7.46